State Line, Pennsylvania
Current Conditions -  °F | °C
As of 9:53 PM on Tuesday 25 Nov 2014 (Local Time) from KHGR Reporting Station
Clear Clear  
Wind Chill: 44°   Ceiling: Unl
Heat Index: 44°   Visibility: 10mi
Dew Point: 29°   Wind: 0mph
Humidity: 55%   Direction: NA
Pressure: 30.13"   Gusts: NA
Location:  39.73°N, 77.72°W
Report Text: KHGR 260253Z 00000KT 10SM CLR 07/M02 A3013 RMK AO2 SLP214 T00671017 50012
Loading
Personal Weather Stations






























Interactive Weather Map New forecast layout! Learn more

10-Day Weather Forecast

Advertisements
Track Severe Weather on mobile